createdAt,value
2023-02-28T00:01:01.538Z,-1.80
2023-02-28T00:02:34.486Z,-1.80
2023-02-28T00:04:10.283Z,-1.80
2023-02-28T00:09:37.246Z,-1.90
2023-02-28T00:11:12.120Z,-1.90
2023-02-28T00:12:46.437Z,-1.90
2023-02-28T00:14:19.382Z,-1.90
2023-02-28T00:16:11.248Z,-1.90
2023-02-28T00:17:44.699Z,-1.90
2023-02-28T00:19:17.563Z,-1.90
2023-02-28T00:20:58.917Z,-1.90
2023-02-28T00:22:31.979Z,-1.90
2023-02-28T00:24:05.334Z,-1.90
2023-02-28T00:25:37.192Z,-1.90
2023-02-28T00:27:10.154Z,-1.90
2023-02-28T00:28:44.458Z,-1.90
2023-02-28T00:30:34.004Z,-1.90
2023-02-28T00:32:07.636Z,-1.90
2023-02-28T00:33:40.671Z,-1.90
2023-02-28T00:35:14.623Z,-2.00
2023-02-28T00:36:50.891Z,-2.00
2023-02-28T00:38:23.837Z,-2.00
2023-02-28T00:39:56.806Z,-2.00
2023-02-28T00:41:30.132Z,-1.90
2023-02-28T00:43:12.378Z,-1.90
2023-02-28T00:44:46.758Z,-1.90
2023-02-28T00:46:19.855Z,-1.90
2023-02-28T00:47:51.858Z,-1.90
2023-02-28T00:49:25.191Z,-2.00
2023-02-28T00:52:01.853Z,-2.00
2023-02-28T00:53:35.139Z,-2.00
2023-02-28T00:55:08.623Z,-2.00
2023-02-28T00:56:41.582Z,-2.00
2023-02-28T00:58:14.493Z,-2.00
2023-02-28T00:59:48.832Z,-2.00
2023-02-28T01:01:28.125Z,-2.00
2023-02-28T01:03:00.348Z,-2.00
2023-02-28T01:04:33.401Z,-2.00
2023-02-28T01:06:06.918Z,-2.00
2023-02-28T01:07:40.250Z,-2.00
2023-02-28T01:09:13.746Z,-2.00
2023-02-28T01:11:08.770Z,-2.00
2023-02-28T01:12:50.643Z,-2.00
2023-02-28T01:14:24.257Z,-2.00
2023-02-28T01:15:58.838Z,-2.10
2023-02-28T01:17:31.823Z,-2.00
2023-02-28T01:19:04.852Z,-2.00
2023-02-28T01:20:54.302Z,-2.00
2023-02-28T01:22:52.478Z,-2.00
2023-02-28T01:24:40.503Z,-2.00
2023-02-28T01:26:15.656Z,-2.00
2023-02-28T01:27:48.925Z,-2.00
2023-02-28T01:29:22.417Z,-2.00
2023-02-28T01:31:05.480Z,-2.00
2023-02-28T01:32:38.924Z,-1.90
2023-02-28T01:34:11.833Z,-1.90
2023-02-28T01:35:44.791Z,-2.00
2023-02-28T01:37:17.875Z,-2.00
2023-02-28T01:38:50.535Z,-1.90
2023-02-28T01:40:38.911Z,-2.00
2023-02-28T01:42:15.036Z,-2.00
2023-02-28T01:43:56.544Z,-2.00
2023-02-28T01:45:31.748Z,-2.00
2023-02-28T01:47:06.145Z,-2.00
2023-02-28T01:48:42.243Z,-2.00
2023-02-28T01:50:18.786Z,-2.00
2023-02-28T01:51:55.642Z,-2.00
2023-02-28T01:53:33.575Z,-1.90
2023-02-28T01:55:08.911Z,-1.90
2023-02-28T01:56:46.302Z,-1.90
2023-02-28T01:58:19.398Z,-1.90
2023-02-28T01:59:56.454Z,-1.90
2023-02-28T02:01:30.083Z,-1.90
2023-02-28T02:03:09.905Z,-1.90
2023-02-28T02:04:49.231Z,-1.90
2023-02-28T02:06:35.535Z,-1.90
2023-02-28T02:08:18.223Z,-1.90
2023-02-28T02:09:51.298Z,-1.90
2023-02-28T02:11:26.748Z,-1.90
2023-02-28T02:13:16.084Z,-1.90
2023-02-28T02:15:03.120Z,-1.90
2023-02-28T02:16:43.914Z,-1.80
2023-02-28T02:18:35.209Z,-1.80
2023-02-28T02:20:41.678Z,-1.80
2023-02-28T02:22:46.986Z,-1.80
2023-02-28T02:25:03.319Z,-1.90
2023-02-28T02:27:17.370Z,-1.90
2023-02-28T02:29:15.739Z,-1.90
2023-02-28T02:31:15.450Z,-1.90
2023-02-28T02:33:12.287Z,-1.90
2023-02-28T02:34:56.808Z,-1.90
2023-02-28T02:36:41.442Z,-1.90
2023-02-28T02:38:38.556Z,-1.90
2023-02-28T02:40:16.622Z,-1.90
2023-02-28T02:41:53.796Z,-1.90
2023-02-28T02:43:32.231Z,-1.90
2023-02-28T02:45:26.946Z,-2.00
2023-02-28T02:47:05.206Z,-2.00
2023-02-28T02:48:41.826Z,-2.00
2023-02-28T02:50:35.599Z,-2.00
2023-02-28T02:54:03.622Z,-2.00
2023-02-28T02:55:40.968Z,-2.00
2023-02-28T02:57:19.377Z,-2.00
2023-02-28T02:58:54.475Z,-2.10
2023-02-28T03:00:40.253Z,-2.00
2023-02-28T03:02:24.088Z,-2.00
2023-02-28T03:03:59.397Z,-2.00
2023-02-28T03:05:37.965Z,-2.00
2023-02-28T03:07:10.063Z,-2.00
2023-02-28T03:08:42.962Z,-2.10
2023-02-28T03:10:34.865Z,-2.00
2023-02-28T03:13:00.511Z,-2.00
2023-02-28T03:14:44.668Z,-2.00
2023-02-28T03:16:37.485Z,-2.10
2023-02-28T03:18:15.453Z,-2.10
2023-02-28T03:19:56.360Z,-2.10
2023-02-28T03:21:45.599Z,-2.10
2023-02-28T03:23:20.860Z,-2.10
2023-02-28T03:24:59.270Z,-2.10
2023-02-28T03:26:35.009Z,-2.20
2023-02-28T03:28:13.326Z,-2.20
2023-02-28T03:29:52.610Z,-2.10
2023-02-28T03:31:46.962Z,-2.10
2023-02-28T03:33:30.288Z,-2.10
2023-02-28T03:35:08.687Z,-2.10
2023-02-28T03:36:47.546Z,-2.00
2023-02-28T03:38:25.769Z,-2.00
2023-02-28T03:40:03.871Z,-2.00
2023-02-28T03:41:42.360Z,-2.10
2023-02-28T03:43:34.301Z,-2.10
2023-02-28T03:45:13.938Z,-2.10
2023-02-28T03:46:54.563Z,-2.10
2023-02-28T03:48:33.200Z,-2.10
2023-02-28T03:50:33.321Z,-2.10
2023-02-28T03:52:13.976Z,-2.10
2023-02-28T03:53:52.372Z,-2.10
2023-02-28T03:55:25.698Z,-2.20
2023-02-28T03:57:05.127Z,-2.20
2023-02-28T03:58:44.005Z,-2.20
2023-02-28T04:00:36.801Z,-2.20
2023-02-28T04:02:22.331Z,-2.20
2023-02-28T04:03:55.820Z,-2.20
2023-02-28T04:05:27.874Z,-2.20
2023-02-28T04:07:05.841Z,-2.20
2023-02-28T04:08:40.347Z,-2.20
2023-02-28T04:10:25.739Z,-2.10
2023-02-28T04:12:14.048Z,-2.10
2023-02-28T04:13:47.513Z,-2.20
2023-02-28T04:15:23.774Z,-2.10
2023-02-28T04:16:57.079Z,-2.20
2023-02-28T04:18:33.202Z,-2.20
2023-02-28T04:20:10.680Z,-2.10
2023-02-28T04:21:51.581Z,-2.20
2023-02-28T04:23:24.974Z,-2.10
2023-02-28T04:24:59.454Z,-2.10
2023-02-28T04:26:31.941Z,-2.10
2023-02-28T04:28:05.230Z,-2.10
2023-02-28T04:29:38.724Z,-2.10
2023-02-28T04:31:27.451Z,-2.10
2023-02-28T04:33:01.080Z,-2.10
2023-02-28T04:34:37.605Z,-2.10
2023-02-28T04:36:15.608Z,-2.10
2023-02-28T04:37:48.814Z,-2.10
2023-02-28T04:39:22.255Z,-2.10
2023-02-28T04:41:05.762Z,-2.10
2023-02-28T04:42:39.023Z,-2.10
2023-02-28T04:44:12.406Z,-2.10
2023-02-28T04:45:45.389Z,-2.00
2023-02-28T04:47:18.694Z,-2.00
2023-02-28T04:48:51.849Z,-2.00
2023-02-28T04:50:40.496Z,-2.00
2023-02-28T04:54:50.544Z,-2.00
2023-02-28T04:56:25.006Z,-1.90
2023-02-28T04:57:58.815Z,-1.90
2023-02-28T04:59:30.944Z,-1.90
2023-02-28T05:01:46.469Z,-1.90
2023-02-28T05:03:19.687Z,-1.90
2023-02-28T05:04:52.879Z,-1.90
2023-02-28T05:06:28.033Z,-1.90
2023-02-28T05:08:01.074Z,-1.90
2023-02-28T05:09:34.200Z,-1.90
2023-02-28T05:11:26.816Z,-1.90
2023-02-28T05:13:27.644Z,-1.90
2023-02-28T05:15:02.204Z,-1.90
2023-02-28T05:16:35.492Z,-1.90
2023-02-28T05:18:10.703Z,-1.90
2023-02-28T05:19:43.880Z,-1.90
2023-02-28T05:21:34.951Z,-1.90
2023-02-28T05:23:08.558Z,-1.90
2023-02-28T05:24:43.280Z,-2.00
2023-02-28T05:28:08.119Z,-1.90
2023-02-28T05:29:46.449Z,-1.90
2023-02-28T05:31:19.418Z,-1.90
2023-02-28T05:32:53.677Z,-1.90
2023-02-28T05:34:26.810Z,-1.90
2023-02-28T05:36:42.109Z,-1.90
2023-02-28T05:38:15.425Z,-1.90
2023-02-28T05:39:49.039Z,-1.90
2023-02-28T05:41:22.890Z,-1.90
2023-02-28T05:42:56.142Z,-2.00
2023-02-28T05:44:30.882Z,-2.00
2023-02-28T05:46:06.465Z,-2.00
2023-02-28T05:48:04.505Z,-2.00
2023-02-28T05:51:14.881Z,-1.90
2023-02-28T05:52:51.815Z,-1.90
2023-02-28T05:54:24.697Z,-1.90
2023-02-28T05:55:56.592Z,-1.90
2023-02-28T05:57:29.553Z,-2.00
2023-02-28T05:59:02.928Z,-1.90
2023-02-28T06:00:36.989Z,-2.00
2023-02-28T06:02:14.692Z,-2.00
2023-02-28T06:03:47.680Z,-2.00
2023-02-28T06:05:33.298Z,-2.00
2023-02-28T06:07:06.459Z,-2.00
2023-02-28T06:08:39.379Z,-2.00
2023-02-28T06:10:13.517Z,-2.00
2023-02-28T06:11:46.637Z,-2.00
2023-02-28T06:13:20.240Z,-2.00
2023-02-28T06:14:53.157Z,-2.00
2023-02-28T06:16:27.987Z,-2.00
2023-02-28T06:18:01.479Z,-2.00
2023-02-28T06:19:34.715Z,-2.00
2023-02-28T06:21:07.699Z,-2.00
2023-02-28T06:22:46.771Z,-1.90
2023-02-28T06:24:18.766Z,-1.90
2023-02-28T06:25:51.708Z,-1.90
2023-02-28T06:27:24.592Z,-1.90
2023-02-28T06:28:57.510Z,-1.90
2023-02-28T06:30:36.635Z,-1.80
2023-02-28T06:32:10.988Z,-1.70
2023-02-28T06:33:45.012Z,-1.70
2023-02-28T06:35:18.325Z,-1.70
2023-02-28T06:36:53.617Z,-1.70
2023-02-28T06:38:26.599Z,-1.70
2023-02-28T06:39:59.847Z,-1.60
2023-02-28T06:41:53.733Z,-1.60
2023-02-28T06:43:30.480Z,-1.60
2023-02-28T06:45:04.290Z,-1.60
2023-02-28T06:46:37.437Z,-1.60
2023-02-28T06:48:12.332Z,-1.60
2023-02-28T06:49:46.088Z,-1.60
2023-02-28T06:51:21.280Z,-1.50
2023-02-28T06:52:55.264Z,-1.50
2023-02-28T06:54:28.312Z,-1.50
2023-02-28T06:56:01.317Z,-1.50
2023-02-28T06:57:35.654Z,-1.50
2023-02-28T06:59:08.657Z,-1.40
2023-02-28T07:00:41.528Z,-1.40
2023-02-28T07:02:14.365Z,-1.40
2023-02-28T07:03:52.997Z,-1.40
2023-02-28T07:05:31.763Z,-1.30
2023-02-28T07:07:17.026Z,-1.30
2023-02-28T07:08:50.142Z,-1.20
2023-02-28T07:10:23.027Z,-1.20
2023-02-28T07:11:55.883Z,-1.20
2023-02-28T07:13:28.849Z,-1.10
2023-02-28T07:15:01.777Z,-1.10
2023-02-28T07:16:35.019Z,-1.00
2023-02-28T07:18:26.583Z,-1.00
2023-02-28T07:20:00.820Z,-1.00
2023-02-28T07:21:33.747Z,-0.90
2023-02-28T07:23:06.590Z,-0.90
2023-02-28T07:24:39.811Z,-0.90
2023-02-28T07:26:18.767Z,-0.80
2023-02-28T07:28:16.752Z,-0.80
2023-02-28T07:29:49.649Z,-0.70
2023-02-28T07:31:22.585Z,-0.70
2023-02-28T07:32:56.995Z,-0.70
2023-02-28T07:34:30.022Z,-0.60
2023-02-28T07:36:16.081Z,-0.60
2023-02-28T07:37:55.204Z,-0.50
2023-02-28T07:39:28.186Z,-0.50
2023-02-28T07:41:05.250Z,-0.50
2023-02-28T07:42:39.521Z,-0.40
2023-02-28T07:44:12.863Z,-0.40
2023-02-28T07:45:45.770Z,-0.40
2023-02-28T07:47:18.651Z,-0.30
2023-02-28T07:48:51.602Z,-0.20
2023-02-28T07:50:33.712Z,-0.20
2023-02-28T07:52:10.009Z,-0.20
2023-02-28T07:53:43.802Z,-0.10
2023-02-28T07:55:17.737Z,-0.10
2023-02-28T07:56:50.644Z,0.00
2023-02-28T07:58:23.577Z,0.10
2023-02-28T07:59:56.480Z,0.10
2023-02-28T08:01:29.917Z,0.20
2023-02-28T08:03:03.113Z,0.20
2023-02-28T08:04:36.318Z,0.30
2023-02-28T08:06:19.617Z,0.30
2023-02-28T08:08:18.577Z,0.30
2023-02-28T08:09:51.509Z,0.30
2023-02-28T08:11:24.683Z,0.40
2023-02-28T08:12:57.659Z,0.40
2023-02-28T08:14:30.704Z,0.40
2023-02-28T08:16:06.961Z,0.50
2023-02-28T08:17:40.007Z,0.60
2023-02-28T08:19:12.913Z,0.60
2023-02-28T08:20:45.786Z,0.60
2023-02-28T08:22:18.732Z,0.60
2023-02-28T08:23:53.649Z,0.60
2023-02-28T08:25:29.558Z,0.60
2023-02-28T08:27:02.487Z,0.60
2023-02-28T08:28:35.411Z,0.60
2023-02-28T08:30:10.772Z,0.60
2023-02-28T08:31:50.011Z,0.70
2023-02-28T08:33:23.749Z,0.70
2023-02-28T08:34:56.665Z,0.80
2023-02-28T08:36:30.813Z,0.80
2023-02-28T08:38:03.751Z,0.80
2023-02-28T08:39:38.293Z,0.90
2023-02-28T08:41:27.317Z,0.90
2023-02-28T08:43:12.589Z,0.90
2023-02-28T08:44:45.469Z,1.00
2023-02-28T08:46:18.512Z,1.00
2023-02-28T08:47:53.445Z,1.00
2023-02-28T08:49:26.381Z,1.10
2023-02-28T08:51:22.385Z,1.10
2023-02-28T08:52:55.345Z,1.00
2023-02-28T08:54:31.624Z,1.10
2023-02-28T08:56:07.412Z,1.20
2023-02-28T08:57:40.292Z,1.30
2023-02-28T08:59:13.186Z,1.40
2023-02-28T09:00:46.178Z,1.30
2023-02-28T09:02:19.214Z,1.30
2023-02-28T09:03:53.140Z,1.40
2023-02-28T09:05:26.165Z,1.50
2023-02-28T09:06:59.157Z,1.50
2023-02-28T09:08:32.903Z,1.60
2023-02-28T09:10:06.401Z,1.60
2023-02-28T09:11:40.684Z,1.60
2023-02-28T09:13:13.649Z,1.50
2023-02-28T09:14:46.654Z,1.60
2023-02-28T09:16:20.094Z,1.60
2023-02-28T09:17:52.817Z,1.70
2023-02-28T09:19:25.774Z,1.80
2023-02-28T09:21:09.425Z,1.70
2023-02-28T09:22:42.371Z,1.80
2023-02-28T09:24:16.181Z,1.90
2023-02-28T09:25:50.145Z,2.00
2023-02-28T09:27:24.471Z,2.10
2023-02-28T09:28:59.865Z,2.00
2023-02-28T09:30:33.030Z,1.90
2023-02-28T09:32:06.851Z,1.80
2023-02-28T09:33:39.881Z,1.70
2023-02-28T09:37:20.018Z,1.70
2023-02-28T09:38:53.966Z,1.80
2023-02-28T09:40:28.435Z,1.90
2023-02-28T09:42:01.412Z,1.90
2023-02-28T09:43:38.889Z,1.90
2023-02-28T09:45:33.545Z,1.90
2023-02-28T09:47:29.969Z,2.00
2023-02-28T09:49:06.399Z,2.10
2023-02-28T09:50:42.930Z,2.10
2023-02-28T09:52:20.437Z,2.10
2023-02-28T09:54:00.087Z,2.20
2023-02-28T09:55:46.562Z,2.30
2023-02-28T09:57:51.869Z,2.30
2023-02-28T09:59:50.220Z,2.30
2023-02-28T10:01:30.010Z,2.40
2023-02-28T10:03:13.082Z,2.50
2023-02-28T10:04:55.953Z,2.50
2023-02-28T10:06:32.304Z,2.60
2023-02-28T10:08:12.068Z,2.70
2023-02-28T10:09:47.019Z,2.80
2023-02-28T10:11:21.655Z,2.80
2023-02-28T10:12:57.473Z,2.80
2023-02-28T10:14:32.525Z,2.80
2023-02-28T10:16:12.625Z,2.80
2023-02-28T10:17:55.785Z,2.90
2023-02-28T10:19:42.010Z,2.90
2023-02-28T10:21:23.182Z,3.00
2023-02-28T10:23:00.797Z,2.90
2023-02-28T10:24:37.803Z,2.90
2023-02-28T10:26:30.679Z,3.10
2023-02-28T10:28:12.225Z,3.10
2023-02-28T10:29:47.664Z,3.20
2023-02-28T10:31:24.092Z,3.20
2023-02-28T10:32:58.272Z,3.20
2023-02-28T10:34:31.345Z,3.10
2023-02-28T10:36:21.489Z,3.10
2023-02-28T10:38:20.424Z,3.20
2023-02-28T10:39:53.364Z,3.20
2023-02-28T10:41:35.606Z,3.30
2023-02-28T10:43:21.570Z,3.40
2023-02-28T10:45:16.685Z,3.50
2023-02-28T10:48:41.685Z,3.80
2023-02-28T10:50:34.286Z,3.90
2023-02-28T10:52:11.276Z,3.80
2023-02-28T10:54:02.696Z,3.80
2023-02-28T10:55:36.025Z,3.70
2023-02-28T10:57:31.705Z,3.80
2023-02-28T10:59:25.557Z,3.80
2023-02-28T11:01:00.533Z,3.80
2023-02-28T11:02:36.438Z,3.70
2023-02-28T11:04:22.487Z,3.60
2023-02-28T11:06:17.574Z,3.70
2023-02-28T11:08:16.893Z,3.80
2023-02-28T11:09:52.017Z,3.90
2023-02-28T11:11:31.350Z,3.90
2023-02-28T11:13:05.324Z,3.90
2023-02-28T11:14:49.846Z,3.90
2023-02-28T11:16:33.500Z,3.90
2023-02-28T11:18:23.487Z,4.00
2023-02-28T11:19:58.856Z,4.10
2023-02-28T11:21:34.884Z,4.10
2023-02-28T11:23:14.482Z,3.90
2023-02-28T11:24:51.981Z,3.90
2023-02-28T11:27:11.485Z,4.10
2023-02-28T11:28:44.611Z,4.10
2023-02-28T11:30:32.548Z,4.10
2023-02-28T11:32:14.769Z,4.10
2023-02-28T11:33:51.315Z,4.20
2023-02-28T11:35:35.641Z,4.20
2023-02-28T11:37:20.242Z,4.30
2023-02-28T11:38:55.424Z,4.30
2023-02-28T11:40:37.452Z,4.30
2023-02-28T11:42:29.573Z,4.20
2023-02-28T11:44:14.329Z,4.30
2023-02-28T11:46:08.923Z,4.30
2023-02-28T11:48:16.123Z,4.20
2023-02-28T11:50:03.085Z,4.20
2023-02-28T11:52:06.598Z,4.20
2023-02-28T11:53:54.000Z,4.30
2023-02-28T11:55:34.683Z,4.40
2023-02-28T11:58:16.401Z,4.40
2023-02-28T12:00:00.431Z,4.50
2023-02-28T12:01:49.252Z,4.60
2023-02-28T12:03:30.384Z,4.80
2023-02-28T12:05:38.829Z,4.80
2023-02-28T12:09:35.255Z,4.80
2023-02-28T12:11:14.843Z,4.70
2023-02-28T12:12:59.263Z,4.60
2023-02-28T12:14:55.784Z,4.50
2023-02-28T12:17:02.988Z,4.50
2023-02-28T12:18:54.380Z,4.50
2023-02-28T12:20:35.694Z,4.60
2023-02-28T12:22:22.873Z,4.60
2023-02-28T12:24:04.986Z,4.60
2023-02-28T12:26:01.014Z,4.70
2023-02-28T12:27:37.614Z,4.70
2023-02-28T12:29:20.537Z,4.60
2023-02-28T12:30:58.775Z,4.60
2023-02-28T12:32:35.903Z,4.60
2023-02-28T12:34:15.103Z,4.70
2023-02-28T12:36:18.452Z,4.70
2023-02-28T12:38:20.413Z,4.60
2023-02-28T12:39:58.690Z,4.50
2023-02-28T12:41:38.488Z,4.60
2023-02-28T12:43:14.515Z,4.70
2023-02-28T12:44:53.680Z,4.90
2023-02-28T12:46:43.879Z,4.90
2023-02-28T12:48:21.773Z,5.00
2023-02-28T12:50:00.319Z,5.00
2023-02-28T12:51:35.014Z,5.00
2023-02-28T12:53:12.298Z,5.00
2023-02-28T12:54:51.366Z,5.20
2023-02-28T12:56:49.373Z,5.30
2023-02-28T12:58:29.834Z,5.30
2023-02-28T13:00:05.842Z,5.20
2023-02-28T13:01:54.192Z,5.30
2023-02-28T13:03:43.971Z,5.30
2023-02-28T13:06:12.551Z,5.40
2023-02-28T13:08:23.009Z,5.40
2023-02-28T13:09:58.338Z,5.40
2023-02-28T13:11:34.852Z,5.30
2023-02-28T13:13:08.620Z,5.20
2023-02-28T13:14:42.184Z,5.20
2023-02-28T13:16:15.278Z,5.20
2023-02-28T13:18:29.514Z,5.10
2023-02-28T13:20:02.640Z,5.10
2023-02-28T13:21:45.574Z,5.00
2023-02-28T13:23:41.008Z,5.10
2023-02-28T13:25:54.755Z,5.00
2023-02-28T13:27:40.407Z,5.00
2023-02-28T13:29:32.508Z,5.10
2023-02-28T13:31:15.146Z,5.10
2023-02-28T13:32:48.481Z,5.10
2023-02-28T13:34:22.290Z,5.20
2023-02-28T13:36:24.733Z,5.20
2023-02-28T13:38:17.237Z,5.40
2023-02-28T13:39:52.564Z,5.40
2023-02-28T13:41:48.429Z,5.50
2023-02-28T13:43:34.588Z,5.50
2023-02-28T13:45:39.367Z,5.50
2023-02-28T13:47:29.872Z,5.60
2023-02-28T13:49:20.959Z,5.60
2023-02-28T13:51:42.609Z,5.60
2023-02-28T13:53:41.441Z,5.60
2023-02-28T13:55:29.907Z,5.60
2023-02-28T13:57:14.057Z,5.60
2023-02-28T13:58:55.373Z,5.60
2023-02-28T14:01:00.977Z,5.50
2023-02-28T14:03:12.899Z,5.50
2023-02-28T14:04:58.626Z,5.50
2023-02-28T14:06:33.861Z,5.50
2023-02-28T14:08:16.239Z,5.40
2023-02-28T14:10:06.325Z,5.40
2023-02-28T14:11:41.854Z,5.40
2023-02-28T14:13:31.942Z,5.40
2023-02-28T14:15:06.561Z,5.50
2023-02-28T14:16:43.600Z,5.40
2023-02-28T14:18:27.260Z,5.40
2023-02-28T14:20:00.765Z,5.40
2023-02-28T14:21:50.426Z,5.30
2023-02-28T14:23:37.295Z,5.20
2023-02-28T14:25:23.197Z,5.20
2023-02-28T14:27:35.823Z,5.20
2023-02-28T14:29:24.879Z,5.20
2023-02-28T14:31:07.801Z,5.20
2023-02-28T14:32:49.823Z,5.30
2023-02-28T14:34:44.397Z,5.40
2023-02-28T14:36:22.473Z,5.30
2023-02-28T14:37:56.564Z,5.20
2023-02-28T14:39:31.858Z,5.10
2023-02-28T14:41:16.718Z,5.00
2023-02-28T14:42:57.103Z,5.00
2023-02-28T14:44:30.944Z,4.90
2023-02-28T14:46:20.751Z,5.00
2023-02-28T14:47:54.325Z,5.00
2023-02-28T14:49:31.178Z,5.00
2023-02-28T14:51:04.168Z,5.00
2023-02-28T14:52:37.169Z,5.00
2023-02-28T14:54:17.469Z,4.90
2023-02-28T14:55:56.670Z,4.90
2023-02-28T14:57:52.361Z,4.90
2023-02-28T14:59:28.352Z,5.00
2023-02-28T15:01:04.769Z,4.90
2023-02-28T15:02:38.428Z,5.00
2023-02-28T15:04:25.008Z,4.90
2023-02-28T15:06:06.649Z,4.90
2023-02-28T15:07:39.671Z,4.90
2023-02-28T15:09:17.023Z,4.90
2023-02-28T15:10:56.280Z,4.90
2023-02-28T15:12:29.328Z,4.90
2023-02-28T15:14:05.027Z,4.90
2023-02-28T15:16:04.021Z,4.90
2023-02-28T15:17:37.825Z,4.90
2023-02-28T15:19:18.857Z,4.80
2023-02-28T15:21:14.143Z,4.80
2023-02-28T15:22:50.136Z,4.80
2023-02-28T15:24:26.767Z,4.80
2023-02-28T15:26:00.964Z,4.90
2023-02-28T15:27:38.239Z,4.90
2023-02-28T15:29:16.972Z,4.90
2023-02-28T15:31:54.322Z,4.90
2023-02-28T15:33:31.041Z,4.80
2023-02-28T15:35:20.278Z,4.90
2023-02-28T15:36:53.325Z,4.90
2023-02-28T15:38:27.632Z,4.80
2023-02-28T15:40:09.901Z,4.80
2023-02-28T15:41:42.851Z,4.70
2023-02-28T15:43:17.827Z,4.70
2023-02-28T15:44:52.260Z,4.70
2023-02-28T15:46:25.189Z,4.60
2023-02-28T15:48:02.616Z,4.70
2023-02-28T15:49:47.736Z,4.70
2023-02-28T15:51:39.352Z,4.60
2023-02-28T15:53:19.451Z,4.60
2023-02-28T15:54:52.870Z,4.60
2023-02-28T15:56:27.162Z,4.50
2023-02-28T15:58:03.340Z,4.50
2023-02-28T15:59:37.898Z,4.40
2023-02-28T16:01:31.123Z,4.40
2023-02-28T16:03:37.058Z,4.40
2023-02-28T16:05:29.029Z,4.30
2023-02-28T16:07:07.241Z,4.20
2023-02-28T16:08:40.128Z,4.20
2023-02-28T16:10:15.016Z,4.20
2023-02-28T16:11:53.118Z,4.20
2023-02-28T16:13:26.058Z,4.10
2023-02-28T16:15:03.464Z,4.10
2023-02-28T16:16:45.107Z,4.00
2023-02-28T16:18:18.136Z,4.00
2023-02-28T16:19:51.229Z,3.90
2023-02-28T16:23:11.197Z,3.90
2023-02-28T16:24:44.745Z,3.90
2023-02-28T16:26:21.139Z,3.80
2023-02-28T16:27:55.847Z,3.80
2023-02-28T16:29:33.008Z,3.70
2023-02-28T16:31:22.032Z,3.70
2023-02-28T16:33:10.572Z,3.70
2023-02-28T16:34:43.956Z,3.70
2023-02-28T16:36:18.177Z,3.60
2023-02-28T16:37:53.269Z,3.60
2023-02-28T16:39:26.637Z,3.50
2023-02-28T16:41:00.982Z,3.50
2023-02-28T16:42:34.352Z,3.40
2023-02-28T16:44:11.874Z,3.40
2023-02-28T16:45:45.135Z,3.30
2023-02-28T16:47:18.229Z,3.20
2023-02-28T16:48:52.639Z,3.10
2023-02-28T16:50:27.242Z,3.10
2023-02-28T16:52:00.282Z,3.10
2023-02-28T16:53:33.325Z,3.10
2023-02-28T16:55:07.131Z,3.10
2023-02-28T16:56:45.141Z,3.10
2023-02-28T16:58:20.251Z,3.00
2023-02-28T16:59:53.427Z,3.00
2023-02-28T17:01:28.747Z,3.00
2023-02-28T17:03:04.594Z,2.90
2023-02-28T17:04:40.175Z,2.90
2023-02-28T17:06:22.253Z,2.80
2023-02-28T17:07:55.216Z,2.80
2023-02-28T17:09:40.138Z,2.80
2023-02-28T17:11:14.737Z,2.70
2023-02-28T17:12:47.940Z,2.70
2023-02-28T17:14:22.007Z,2.70
2023-02-28T17:16:41.082Z,2.70
2023-02-28T17:18:17.749Z,2.60
2023-02-28T17:19:52.026Z,2.60
2023-02-28T17:21:25.039Z,2.60
2023-02-28T17:22:58.718Z,2.60
2023-02-28T17:24:32.909Z,2.50
2023-02-28T17:26:07.543Z,2.50
2023-02-28T17:27:40.697Z,2.60
2023-02-28T17:29:16.892Z,2.50
2023-02-28T17:31:14.697Z,2.50
2023-02-28T17:32:47.891Z,2.50
2023-02-28T17:34:21.165Z,2.40
2023-02-28T17:35:55.610Z,2.40
2023-02-28T17:37:28.643Z,2.40
2023-02-28T17:39:03.008Z,2.40
2023-02-28T17:42:24.289Z,2.40
2023-02-28T17:43:57.355Z,2.40
2023-02-28T17:45:30.489Z,2.30
2023-02-28T17:47:03.772Z,2.40
2023-02-28T17:48:37.064Z,2.30
2023-02-28T17:50:15.002Z,2.30
2023-02-28T17:51:51.387Z,2.30
2023-02-28T17:53:24.551Z,2.20
2023-02-28T17:54:57.679Z,2.30
2023-02-28T17:56:31.147Z,2.20
2023-02-28T17:58:05.012Z,2.20
2023-02-28T17:59:38.030Z,2.10
2023-02-28T18:01:11.802Z,2.10
2023-02-28T18:02:45.580Z,2.10
2023-02-28T18:04:18.592Z,2.10
2023-02-28T18:05:57.829Z,2.10
2023-02-28T18:07:32.529Z,2.10
2023-02-28T18:09:05.526Z,2.10
2023-02-28T18:10:38.633Z,2.10
2023-02-28T18:12:11.707Z,2.00
2023-02-28T18:13:45.138Z,2.00
2023-02-28T18:15:33.084Z,2.00
2023-02-28T18:17:21.106Z,2.00
2023-02-28T18:18:54.085Z,2.00
2023-02-28T18:20:27.044Z,2.00
2023-02-28T18:22:00.824Z,2.00
2023-02-28T18:23:37.414Z,1.90
2023-02-28T18:25:26.992Z,1.90
2023-02-28T18:26:59.936Z,1.90
2023-02-28T18:28:34.788Z,1.90
2023-02-28T18:30:08.727Z,1.90
2023-02-28T18:31:42.980Z,1.90
2023-02-28T18:33:15.885Z,1.80
2023-02-28T18:34:57.366Z,1.80
2023-02-28T18:36:36.244Z,1.80
2023-02-28T18:38:19.266Z,1.70
2023-02-28T18:39:54.131Z,1.70
2023-02-28T18:41:28.930Z,1.60
2023-02-28T18:43:02.360Z,1.60
2023-02-28T18:44:35.232Z,1.50
2023-02-28T18:47:58.336Z,1.50
2023-02-28T18:49:40.224Z,1.50
2023-02-28T18:51:14.654Z,1.50
2023-02-28T18:52:47.553Z,1.50
2023-02-28T18:54:23.128Z,1.50
2023-02-28T18:56:01.904Z,1.50
2023-02-28T18:57:34.854Z,1.50
2023-02-28T18:59:07.878Z,1.60
2023-02-28T19:00:41.146Z,1.60
2023-02-28T19:02:14.118Z,1.60
2023-02-28T19:03:47.167Z,1.50
2023-02-28T19:05:27.943Z,1.50
2023-02-28T19:07:00.922Z,1.50
2023-02-28T19:08:33.865Z,1.50
2023-02-28T19:10:07.891Z,1.60
2023-02-28T19:11:45.126Z,1.50
2023-02-28T19:13:18.355Z,1.50
2023-02-28T19:14:51.457Z,1.50
2023-02-28T19:16:33.862Z,1.50
2023-02-28T19:18:06.941Z,1.50
2023-02-28T19:19:39.829Z,1.50
2023-02-28T19:21:15.574Z,1.50
2023-02-28T19:22:48.489Z,1.40
2023-02-28T19:24:21.394Z,1.40
2023-02-28T19:25:57.279Z,1.30
2023-02-28T19:27:31.825Z,1.30
2023-02-28T19:29:05.390Z,1.30
2023-02-28T19:30:38.544Z,1.30
2023-02-28T19:32:11.596Z,1.20
2023-02-28T19:33:44.825Z,1.20
2023-02-28T19:35:42.383Z,1.20
2023-02-28T19:37:15.440Z,1.20
2023-02-28T19:38:48.428Z,1.20
2023-02-28T19:40:41.366Z,1.10
2023-02-28T19:42:16.612Z,1.20
2023-02-28T19:43:51.564Z,1.00
2023-02-28T19:45:27.007Z,1.00
2023-02-28T19:46:59.941Z,0.90
2023-02-28T19:48:32.975Z,0.90
2023-02-28T19:50:06.787Z,0.90
2023-02-28T19:51:41.033Z,0.90
2023-02-28T19:53:13.978Z,0.90
2023-02-28T19:54:46.899Z,0.90
2023-02-28T19:56:19.927Z,1.00
2023-02-28T19:57:58.941Z,1.00
2023-02-28T19:59:39.289Z,1.00
2023-02-28T20:01:14.431Z,1.00
2023-02-28T20:02:47.570Z,1.00
2023-02-28T20:04:20.546Z,1.00
2023-02-28T20:06:02.319Z,1.00
2023-02-28T20:07:35.837Z,0.90
2023-02-28T20:09:08.917Z,0.90
2023-02-28T20:11:02.438Z,0.80
2023-02-28T20:12:35.505Z,0.80
2023-02-28T20:14:08.623Z,0.80
2023-02-28T20:15:43.022Z,0.80
2023-02-28T20:17:16.138Z,0.80
2023-02-28T20:18:52.215Z,0.70
2023-02-28T20:20:41.989Z,0.70
2023-02-28T20:22:15.089Z,0.70
2023-02-28T20:23:48.686Z,0.70
2023-02-28T20:25:21.855Z,0.70
2023-02-28T20:26:55.268Z,0.60
2023-02-28T20:28:28.157Z,0.70
2023-02-28T20:30:01.086Z,0.70
2023-02-28T20:31:37.473Z,0.70
2023-02-28T20:33:10.471Z,0.70
2023-02-28T20:34:43.803Z,0.70
2023-02-28T20:36:19.650Z,0.60
2023-02-28T20:37:53.074Z,0.60
2023-02-28T20:39:25.910Z,0.60
2023-02-28T20:41:01.112Z,0.60
2023-02-28T20:42:34.040Z,0.60
2023-02-28T20:44:07.105Z,0.60
2023-02-28T20:45:40.287Z,0.50
2023-02-28T20:47:14.542Z,0.50
2023-02-28T20:48:47.487Z,0.50
2023-02-28T20:50:20.729Z,0.50
2023-02-28T20:51:53.783Z,0.40
2023-02-28T20:53:28.155Z,0.40
2023-02-28T20:55:01.147Z,0.50
2023-02-28T20:56:34.640Z,0.40
2023-02-28T20:58:07.498Z,0.50
2023-02-28T20:59:41.901Z,0.50
2023-02-28T21:01:16.946Z,0.40
2023-02-28T21:02:51.260Z,0.40
2023-02-28T21:04:24.427Z,0.40
2023-02-28T21:06:02.353Z,0.40
2023-02-28T21:07:35.270Z,0.40
2023-02-28T21:09:11.327Z,0.30
2023-02-28T21:10:44.388Z,0.30
2023-02-28T21:12:17.334Z,0.40
2023-02-28T21:13:52.545Z,0.30
2023-02-28T21:15:31.474Z,0.30
2023-02-28T21:17:08.617Z,0.30
2023-02-28T21:18:43.201Z,0.30
2023-02-28T21:20:21.861Z,0.30
2023-02-28T21:21:56.199Z,0.30
2023-02-28T21:23:29.168Z,0.30
2023-02-28T21:25:02.261Z,0.30
2023-02-28T21:26:39.471Z,0.30
2023-02-28T21:28:12.567Z,0.20
2023-02-28T21:29:45.510Z,0.20
2023-02-28T21:31:19.754Z,0.20
2023-02-28T21:32:52.761Z,0.30
2023-02-28T21:34:30.374Z,0.10
2023-02-28T21:36:04.071Z,0.10
2023-02-28T21:37:39.062Z,0.10
2023-02-28T21:39:17.327Z,0.10
2023-02-28T21:40:51.287Z,0.10
2023-02-28T21:42:24.326Z,0.10
2023-02-28T21:43:58.172Z,0.10
2023-02-28T21:45:37.361Z,0.10
2023-02-28T21:47:10.351Z,0.10
2023-02-28T21:48:44.420Z,0.00
2023-02-28T21:50:18.907Z,0.00
2023-02-28T21:51:51.826Z,0.00
2023-02-28T21:53:24.217Z,0.00
2023-02-28T21:54:57.094Z,0.00
2023-02-28T21:56:32.486Z,0.00
2023-02-28T21:58:05.678Z,0.00
2023-02-28T21:59:38.602Z,0.00
2023-02-28T22:01:13.432Z,0.00
2023-02-28T22:02:46.404Z,0.00
2023-02-28T22:04:22.382Z,0.00
2023-02-28T22:05:56.838Z,0.00
2023-02-28T22:07:29.790Z,0.00
2023-02-28T22:09:06.078Z,0.00